Time;durP1;ratioP1;P1;durP2;ratioP2;P2;SDS_P1;SDS_P2;PMS_P1;PMS_P2;Temp;Humidity;BMP_temperature;BMP_pressure;BME280_temperature;BME280_humidity;BME280_pressure;Samples;Min_cycle;Max_cycle;Signal;HPM_P1;HPM_P2
2022/09/13 00:01:46;;;;;;;3.43;3.23;;;;;;;;;;5074120;28;20453;-59
2022/09/13 00:04:15;;;;;;;3.40;3.20;;;;;;;;;;5074237;28;20447;-59
2022/09/13 00:06:41;;;;;;;3.30;3.10;;;;;;;;;;5073880;28;20451;-59
2022/09/13 00:09:08;;;;;;;4.30;3.33;;;;;;;;;;5074077;28;20448;-59
2022/09/13 00:11:36;;;;;;;3.13;2.90;;;;;;;;;;5074104;28;20453;-59
2022/09/13 00:14:03;;;;;;;3.27;2.80;;;;;;;;;;5073939;28;20451;-59
2022/09/13 00:16:30;;;;;;;3.30;3.10;;;;;;;;;;5073828;28;20447;-59
2022/09/13 00:18:57;;;;;;;3.37;3.17;;;;;;;;;;5073699;28;20479;-60
2022/09/13 00:21:26;;;;;;;3.43;3.23;;;;;;;;;;5073742;28;20822;-59
2022/09/13 00:23:54;;;;;;;3.60;3.30;;;;;;;;;;5073894;28;20455;-59
2022/09/13 00:26:22;;;;;;;4.43;3.10;;;;;;;;;;5073724;28;20493;-59
2022/09/13 00:28:51;;;;;;;3.30;3.10;;;;;;;;;;5073722;28;20546;-59
2022/09/13 00:31:18;;;;;;;3.10;2.90;;;;;;;;;;5073682;28;20451;-59
2022/09/13 00:33:45;;;;;;;3.97;3.63;;;;;;;;;;5073568;28;20447;-59
2022/09/13 00:36:14;;;;;;;3.43;3.23;;;;;;;;;;5073774;28;20449;-59
2022/09/13 00:38:42;;;;;;;3.07;2.87;;;;;;;;;;5073558;28;20472;-60
2022/09/13 00:41:11;;;;;;;3.40;3.20;;;;;;;;;;5073432;28;20465;-59
2022/09/13 00:43:41;;;;;;;3.10;2.90;;;;;;;;;;5073419;28;20451;-59
2022/09/13 00:46:09;;;;;;;3.23;3.03;;;;;;;;;;5073306;28;20447;-59
2022/09/13 00:48:37;;;;;;;3.30;3.10;;;;;;;;;;5073293;28;20507;-59
2022/09/13 00:51:05;;;;;;;3.90;3.70;;;;;;;;;;5073284;28;20447;-59
2022/09/13 00:53:33;;;;;;;2.90;2.80;;;;;;;;;;5073449;28;20538;-59
2022/09/13 00:56:03;;;;;;;3.47;3.27;;;;;;;;;;5073180;28;20444;-59
2022/09/13 00:58:33;;;;;;;3.60;3.30;;;;;;;;;;5073366;28;20467;-59
2022/09/13 01:01:02;;;;;;;3.30;3.00;;;;;;;;;;5073480;28;20537;-59
2022/09/13 01:03:30;;;;;;;3.67;3.43;;;;;;;;;;5073225;28;20452;-59
2022/09/13 01:06:00;;;;;;;4.37;3.00;;;;;;;;;;5073328;28;20455;-59
2022/09/13 01:08:28;;;;;;;3.40;2.80;;;;;;;;;;5072961;28;20453;-59
2022/09/13 01:10:58;;;;;;;3.43;3.23;;;;;;;;;;5073008;28;20444;-59
2022/09/13 01:13:28;;;;;;;3.40;3.20;;;;;;;;;;5072931;28;20534;-59
2022/09/13 01:15:55;;;;;;;3.43;3.23;;;;;;;;;;5073168;28;20482;-60
2022/09/13 01:18:22;;;;;;;3.27;3.13;;;;;;;;;;5072922;28;20456;-59
2022/09/13 01:21:03;;;;;;;3.00;2.80;;;;;;;;;;5072927;28;20543;-60
2022/09/13 01:23:49;;;;;;;3.10;2.90;;;;;;;;;;5072884;28;20451;-59
2022/09/13 01:26:30;;;;;;;2.77;2.67;;;;;;;;;;5072733;28;20447;-60
2022/09/13 01:29:10;;;;;;;3.60;3.37;;;;;;;;;;5072928;28;20806;-59
2022/09/13 01:31:44;;;;;;;3.60;3.40;;;;;;;;;;5072695;28;20942;-59
2022/09/13 01:34:17;;;;;;;3.13;2.63;;;;;;;;;;5072746;28;20541;-59
2022/09/13 01:36:55;;;;;;;3.93;3.57;;;;;;;;;;5072896;28;20486;-60
2022/09/13 01:39:26;;;;;;;3.27;3.07;;;;;;;;;;5072776;28;20487;-59
2022/09/13 01:42:05;;;;;;;3.00;2.90;;;;;;;;;;5072744;28;20448;-59
2022/09/13 01:44:39;;;;;;;3.47;3.17;;;;;;;;;;5072642;28;20810;-59
2022/09/13 01:47:10;;;;;;;3.07;2.97;;;;;;;;;;5072614;28;20486;-60
2022/09/13 01:49:43;;;;;;;3.20;3.00;;;;;;;;;;5072734;28;20452;-59
2022/09/13 01:52:15;;;;;;;3.00;2.80;;;;;;;;;;5072643;28;20452;-60
2022/09/13 01:54:48;;;;;;;3.03;2.93;;;;;;;;;;5072597;28;20935;-59
2022/09/13 01:57:18;;;;;;;4.77;3.30;;;;;;;;;;5072476;28;20447;-60
2022/09/13 01:59:51;;;;;;;3.37;3.17;;;;;;;;;;5072812;28;20484;-60
2022/09/13 02:02:21;;;;;;;3.70;3.50;;;;;;;;;;5072651;28;20825;-59
2022/09/13 02:04:50;;;;;;;3.60;3.30;;;;;;;;;;5075954;28;20451;-60
2022/09/13 02:07:20;;;;;;;3.60;3.30;;;;;;;;;;5076335;28;20478;-59
2022/09/13 02:09:50;;;;;;;3.73;3.43;;;;;;;;;;5076229;28;20530;-60
2022/09/13 02:12:19;;;;;;;3.30;3.10;;;;;;;;;;5076371;28;20452;-60
2022/09/13 02:14:49;;;;;;;5.80;3.23;;;;;;;;;;5076259;28;20443;-59
2022/09/13 02:17:17;;;;;;;2.83;2.73;;;;;;;;;;5076173;28;20781;-60
2022/09/13 02:19:49;;;;;;;3.83;3.53;;;;;;;;;;5076001;28;20483;-60
2022/09/13 02:22:17;;;;;;;3.17;3.07;;;;;;;;;;5076529;28;20458;-59
2022/09/13 02:24:46;;;;;;;4.77;3.47;;;;;;;;;;5076186;28;20802;-59
2022/09/13 02:27:15;;;;;;;3.33;3.20;;;;;;;;;;5076063;28;20500;-60
2022/09/13 02:29:44;;;;;;;3.43;3.23;;;;;;;;;;5075818;28;20537;-60
2022/09/13 02:32:15;;;;;;;3.00;2.90;;;;;;;;;;5076118;28;20479;-59
2022/09/13 02:34:44;;;;;;;3.20;3.00;;;;;;;;;;5075670;28;20447;-59
2022/09/13 02:37:13;;;;;;;3.60;3.40;;;;;;;;;;5075865;28;20443;-60
2022/09/13 02:39:44;;;;;;;3.70;3.50;;;;;;;;;;5075711;28;20489;-60
2022/09/13 02:42:13;;;;;;;3.80;3.60;;;;;;;;;;5075710;28;20546;-59
2022/09/13 02:44:42;;;;;;;3.43;3.23;;;;;;;;;;5075643;28;20538;-59
2022/09/13 02:47:12;;;;;;;3.10;3.00;;;;;;;;;;5075280;28;20537;-60
2022/09/13 02:49:44;;;;;;;3.70;3.40;;;;;;;;;;5075734;28;20447;-60
2022/09/13 02:52:19;;;;;;;3.73;3.53;;;;;;;;;;5075624;28;20458;-60
2022/09/13 02:54:51;;;;;;;3.30;3.00;;;;;;;;;;5075491;28;20538;-60
2022/09/13 02:57:20;;;;;;;3.57;3.23;;;;;;;;;;5075478;28;20968;-60
2022/09/13 02:59:48;;;;;;;4.30;4.03;;;;;;;;;;5075260;28;20479;-59
2022/09/13 03:02:17;;;;;;;3.33;3.13;;;;;;;;;;5075207;28;21024;-60
2022/09/13 03:04:44;;;;;;;3.73;3.53;;;;;;;;;;5075295;28;20477;-59
2022/09/13 03:07:11;;;;;;;4.03;3.73;;;;;;;;;;5075281;28;20454;-60
2022/09/13 03:09:40;;;;;;;3.93;3.63;;;;;;;;;;5075218;28;20857;-59
2022/09/13 03:12:23;;;;;;;3.97;3.77;;;;;;;;;;5074961;28;20454;-59
2022/09/13 03:14:55;;;;;;;3.30;3.10;;;;;;;;;;5074065;28;20455;-60
2022/09/13 03:17:29;;;;;;;3.53;3.33;;;;;;;;;;5075192;28;20456;-60
2022/09/13 03:20:17;;;;;;;4.27;3.97;;;;;;;;;;5074914;28;20567;-60
2022/09/13 03:23:05;;;;;;;4.27;3.97;;;;;;;;;;5074854;28;20864;-59
2022/09/13 03:25:37;;;;;;;4.53;4.23;;;;;;;;;;5070439;28;20447;-60
2022/09/13 03:28:09;;;;;;;3.63;3.43;;;;;;;;;;5074903;28;20526;-59
2022/09/13 03:30:37;;;;;;;3.70;3.50;;;;;;;;;;5074783;28;20453;-59
2022/09/13 03:33:08;;;;;;;5.00;4.13;;;;;;;;;;5074590;28;20487;-60
2022/09/13 03:35:38;;;;;;;4.90;3.60;;;;;;;;;;5074789;28;20450;-59
2022/09/13 03:38:07;;;;;;;4.70;3.40;;;;;;;;;;5074611;28;20938;-59
2022/09/13 03:40:40;;;;;;;4.50;3.00;;;;;;;;;;5074490;28;20574;-59
2022/09/13 03:43:10;;;;;;;4.00;3.73;;;;;;;;;;5074611;28;20535;-60
2022/09/13 03:45:39;;;;;;;3.60;3.40;;;;;;;;;;5074786;28;20436;-60
2022/09/13 03:48:07;;;;;;;4.10;3.40;;;;;;;;;;5074423;28;20483;-60
2022/09/13 03:50:34;;;;;;;3.63;3.43;;;;;;;;;;5074478;28;20539;-60
2022/09/13 03:53:10;;;;;;;3.37;3.17;;;;;;;;;;5074431;28;20483;-63
2022/09/13 03:55:41;;;;;;;4.20;3.90;;;;;;;;;;5074415;28;20479;-59
2022/09/13 03:58:10;;;;;;;4.50;4.10;;;;;;;;;;5074540;28;20440;-59
2022/09/13 04:00:39;;;;;;;4.03;3.73;;;;;;;;;;5074043;28;21001;-59
2022/09/13 04:03:06;;;;;;;3.80;3.50;;;;;;;;;;5074190;28;20447;-59
2022/09/13 04:05:33;;;;;;;3.50;3.30;;;;;;;;;;5074157;28;20454;-58
2022/09/13 04:08:01;;;;;;;3.93;3.63;;;;;;;;;;5074112;28;20455;-58
2022/09/13 04:10:30;;;;;;;3.77;3.57;;;;;;;;;;5073980;28;20807;-59
2022/09/13 04:12:59;;;;;;;11.13;10.13;;;;;;;;;;5074069;28;20447;-58
2022/09/13 04:15:26;;;;;;;4.97;4.47;;;;;;;;;;5074076;28;20504;-59
2022/09/13 04:17:53;;;;;;;3.70;3.50;;;;;;;;;;5074070;28;20449;-59
2022/09/13 04:20:20;;;;;;;6.90;4.00;;;;;;;;;;5074299;28;20570;-59
2022/09/13 04:22:51;;;;;;;4.20;3.90;;;;;;;;;;5073669;28;20508;-59
2022/09/13 04:25:18;;;;;;;4.37;3.97;;;;;;;;;;5073599;28;20542;-59
2022/09/13 04:27:45;;;;;;;3.77;3.47;;;;;;;;;;5073376;28;20448;-59
2022/09/13 04:30:14;;;;;;;4.50;4.17;;;;;;;;;;5073611;28;20471;-59
2022/09/13 04:32:42;;;;;;;4.70;4.40;;;;;;;;;;5073492;28;20447;-59
2022/09/13 04:35:09;;;;;;;4.17;3.87;;;;;;;;;;5073594;28;20850;-59
2022/09/13 04:37:37;;;;;;;3.70;3.50;;;;;;;;;;5073328;28;20537;-59
2022/09/13 04:40:04;;;;;;;4.10;3.80;;;;;;;;;;5073609;28;20483;-59
2022/09/13 04:42:31;;;;;;;3.90;3.70;;;;;;;;;;5073320;28;20479;-58
2022/09/13 04:44:58;;;;;;;3.90;3.60;;;;;;;;;;5073352;28;20451;-58
2022/09/13 04:47:26;;;;;;;4.33;3.93;;;;;;;;;;5072983;28;20475;-58
2022/09/13 04:49:53;;;;;;;3.80;3.50;;;;;;;;;;5072978;28;20830;-59
2022/09/13 04:52:20;;;;;;;4.30;3.93;;;;;;;;;;5073124;28;20447;-58
2022/09/13 04:54:47;;;;;;;6.20;4.13;;;;;;;;;;5072967;28;20454;-59
2022/09/13 04:57:17;;;;;;;20.17;5.50;;;;;;;;;;5073131;28;20475;-58
2022/09/13 04:59:44;;;;;;;3.90;3.70;;;;;;;;;;5073067;28;20510;-58
2022/09/13 05:02:11;;;;;;;3.93;3.73;;;;;;;;;;5073185;28;20448;-58
2022/09/13 05:04:39;;;;;;;4.30;4.10;;;;;;;;;;5072714;28;21030;-58
2022/09/13 05:07:06;;;;;;;4.23;3.93;;;;;;;;;;5072941;28;20447;-58
2022/09/13 05:09:33;;;;;;;6.40;4.13;;;;;;;;;;5073366;28;20458;-59
2022/09/13 05:12:00;;;;;;;4.60;4.30;;;;;;;;;;5072910;28;20473;-58
2022/09/13 05:14:27;;;;;;;5.63;4.33;;;;;;;;;;5072904;28;20534;-58
2022/09/13 05:16:54;;;;;;;4.37;4.07;;;;;;;;;;5072701;28;20490;-59
2022/09/13 05:19:21;;;;;;;4.57;4.27;;;;;;;;;;5072909;28;20546;-58
2022/09/13 05:21:49;;;;;;;4.20;3.73;;;;;;;;;;5073136;28;20586;-58
2022/09/13 05:24:16;;;;;;;4.30;3.93;;;;;;;;;;5073075;28;20878;-58
2022/09/13 05:26:43;;;;;;;5.53;4.30;;;;;;;;;;5072880;28;20447;-58
2022/09/13 05:29:10;;;;;;;4.70;4.40;;;;;;;;;;5072930;28;20482;-59
2022/09/13 05:31:39;;;;;;;4.37;4.07;;;;;;;;;;5072571;28;20546;-58
2022/09/13 05:34:09;;;;;;;4.63;4.33;;;;;;;;;;5072696;28;20535;-58
2022/09/13 05:36:36;;;;;;;4.77;4.47;;;;;;;;;;5072785;28;20454;-58
2022/09/13 05:39:05;;;;;;;5.10;4.60;;;;;;;;;;5075082;28;20490;-58
2022/09/13 05:41:32;;;;;;;4.57;4.17;;;;;;;;;;5076614;28;20569;-59
2022/09/13 05:43:59;;;;;;;4.50;4.27;;;;;;;;;;5076957;28;20443;-59
2022/09/13 05:46:26;;;;;;;5.17;4.87;;;;;;;;;;5076510;28;20537;-58
2022/09/13 05:48:53;;;;;;;5.20;4.80;;;;;;;;;;5076529;28;20467;-59
2022/09/13 05:51:21;;;;;;;4.90;4.60;;;;;;;;;;5076715;28;20538;-58
2022/09/13 05:53:49;;;;;;;4.87;4.47;;;;;;;;;;5076528;28;20443;-58
2022/09/13 05:56:19;;;;;;;4.30;4.00;;;;;;;;;;5076354;28;20449;-58
2022/09/13 05:58:47;;;;;;;6.13;4.40;;;;;;;;;;5076304;28;20447;-58
2022/09/13 06:01:16;;;;;;;4.80;4.50;;;;;;;;;;5076566;28;20569;-59
2022/09/13 06:03:43;;;;;;;4.67;4.27;;;;;;;;;;5076289;28;20454;-58
2022/09/13 06:06:11;;;;;;;6.80;4.33;;;;;;;;;;5076238;28;20453;-59
2022/09/13 06:08:38;;;;;;;4.70;4.30;;;;;;;;;;5076257;28;20502;-59
2022/09/13 06:11:06;;;;;;;5.33;4.93;;;;;;;;;;5076079;28;20863;-60
2022/09/13 06:13:34;;;;;;;4.43;4.13;;;;;;;;;;5075969;28;20839;-60
2022/09/13 06:16:01;;;;;;;5.40;4.90;;;;;;;;;;5076261;28;20451;-60
2022/09/13 06:18:29;;;;;;;5.43;5.00;;;;;;;;;;5076145;28;20444;-59
2022/09/13 06:20:59;;;;;;;6.13;5.60;;;;;;;;;;5075899;28;20485;-60
2022/09/13 06:23:26;;;;;;;6.13;5.63;;;;;;;;;;5075724;28;20970;-59
2022/09/13 06:25:59;;;;;;;5.30;4.90;;;;;;;;;;5075506;28;20534;-59
2022/09/13 06:28:26;;;;;;;6.03;5.33;;;;;;;;;;5075638;28;20458;-59
2022/09/13 06:30:59;;;;;;;6.03;5.63;;;;;;;;;;5075789;28;20454;-59
2022/09/13 06:33:26;;;;;;;6.73;6.07;;;;;;;;;;5075840;28;20447;-59
2022/09/13 06:35:53;;;;;;;6.27;5.67;;;;;;;;;;5075689;28;20458;-60
2022/09/13 06:38:20;;;;;;;6.97;6.47;;;;;;;;;;5075636;28;20542;-60
2022/09/13 06:40:47;;;;;;;6.60;6.10;;;;;;;;;;5075758;28;20532;-60
2022/09/13 06:43:14;;;;;;;5.60;5.27;;;;;;;;;;5075758;28;20485;-60
2022/09/13 06:45:42;;;;;;;7.57;6.97;;;;;;;;;;5075554;28;20532;-60
2022/09/13 06:48:10;;;;;;;6.93;6.13;;;;;;;;;;5075407;28;20482;-61
2022/09/13 06:50:37;;;;;;;6.63;6.10;;;;;;;;;;5075208;28;20461;-60
2022/09/13 06:53:04;;;;;;;7.07;6.37;;;;;;;;;;5075307;28;20530;-60
2022/09/13 06:55:31;;;;;;;6.67;6.07;;;;;;;;;;5075454;28;20458;-60
2022/09/13 06:57:58;;;;;;;7.80;7.20;;;;;;;;;;5075344;28;20536;-60
2022/09/13 07:00:25;;;;;;;7.10;6.50;;;;;;;;;;5075222;28;20558;-60
2022/09/13 07:02:52;;;;;;;8.47;7.50;;;;;;;;;;5075202;28;20935;-60
2022/09/13 07:05:21;;;;;;;7.87;7.27;;;;;;;;;;5075179;28;20508;-60
2022/09/13 07:07:48;;;;;;;10.17;9.37;;;;;;;;;;5075121;28;20579;-60
2022/09/13 07:10:15;;;;;;;12.50;11.40;;;;;;;;;;5075255;28;20459;-60
2022/09/13 07:12:42;;;;;;;11.00;10.20;;;;;;;;;;5075163;28;20484;-60
2022/09/13 07:15:09;;;;;;;8.90;8.30;;;;;;;;;;5075437;28;20555;-60
2022/09/13 07:17:36;;;;;;;12.43;11.13;;;;;;;;;;5075009;28;20534;-60
2022/09/13 07:20:06;;;;;;;8.40;7.80;;;;;;;;;;5074737;28;20483;-60
2022/09/13 07:22:34;;;;;;;8.43;7.60;;;;;;;;;;5074995;28;20827;-60
2022/09/13 07:25:02;;;;;;;8.47;7.67;;;;;;;;;;5074936;28;20927;-60
2022/09/13 07:27:28;;;;;;;7.20;6.70;;;;;;;;;;5074958;28;20454;-60
2022/09/13 07:29:56;;;;;;;9.07;8.37;;;;;;;;;;5074751;28;20910;-60
2022/09/13 07:32:23;;;;;;;9.13;8.33;;;;;;;;;;5074540;28;20455;-60
2022/09/13 07:34:50;;;;;;;8.50;7.70;;;;;;;;;;5074258;28;20447;-60
2022/09/13 07:37:17;;;;;;;7.40;6.80;;;;;;;;;;5074676;28;20458;-60
2022/09/13 07:39:45;;;;;;;7.73;7.10;;;;;;;;;;5074469;28;20462;-60
2022/09/13 07:42:12;;;;;;;7.87;7.27;;;;;;;;;;5074490;28;20483;-60
2022/09/13 07:44:39;;;;;;;7.93;7.30;;;;;;;;;;5074459;28;20875;-60
2022/09/13 07:47:06;;;;;;;8.47;7.67;;;;;;;;;;5074195;28;20448;-60
2022/09/13 07:49:33;;;;;;;8.37;7.67;;;;;;;;;;5074604;28;20490;-60
2022/09/13 07:52:00;;;;;;;7.90;7.30;;;;;;;;;;5074512;28;20458;-59
2022/09/13 07:54:27;;;;;;;7.73;7.10;;;;;;;;;;5074504;28;21022;-60
2022/09/13 07:56:55;;;;;;;10.57;9.77;;;;;;;;;;5070599;28;20492;-60
2022/09/13 07:59:22;;;;;;;8.57;7.80;;;;;;;;;;5069998;28;20550;-61
2022/09/13 08:01:50;;;;;;;8.27;7.47;;;;;;;;;;5073093;28;20521;-59
2022/09/13 08:04:18;;;;;;;8.33;7.70;;;;;;;;;;5071957;28;20447;-59
2022/09/13 08:06:46;;;;;;;7.87;7.23;;;;;;;;;;5074082;28;20448;-59
2022/09/13 08:09:13;;;;;;;8.30;7.60;;;;;;;;;;5074024;28;20448;-59
2022/09/13 08:11:40;;;;;;;8.27;7.47;;;;;;;;;;5073972;28;21006;-60
2022/09/13 08:14:10;;;;;;;8.37;7.67;;;;;;;;;;5065764;28;20530;-60
2022/09/13 08:16:38;;;;;;;11.10;8.67;;;;;;;;;;5060901;28;20487;-60
2022/09/13 08:19:06;;;;;;;8.17;7.40;;;;;;;;;;5073762;28;20451;-61
2022/09/13 08:21:34;;;;;;;8.53;7.93;;;;;;;;;;5073776;28;20864;-60
2022/09/13 08:24:01;;;;;;;11.73;9.03;;;;;;;;;;5071120;28;20454;-57
2022/09/13 08:26:28;;;;;;;8.80;8.10;;;;;;;;;;5063577;28;20455;-60
2022/09/13 08:28:58;;;;;;;8.07;7.47;;;;;;;;;;5073687;28;20451;-60
2022/09/13 08:31:27;;;;;;;10.10;7.67;;;;;;;;;;5072180;28;20539;-60
2022/09/13 08:33:54;;;;;;;8.07;7.40;;;;;;;;;;5073461;28;20616;-60
2022/09/13 08:36:22;;;;;;;8.70;8.00;;;;;;;;;;5072670;28;20505;-61
2022/09/13 08:38:50;;;;;;;8.03;7.43;;;;;;;;;;5073360;28;20448;-60
2022/09/13 08:41:23;;;;;;;7.80;7.20;;;;;;;;;;5072019;28;20482;-59
2022/09/13 08:43:53;;;;;;;8.67;7.87;;;;;;;;;;5072174;28;20892;-59
2022/09/13 08:46:23;;;;;;;7.47;6.83;;;;;;;;;;5072661;28;20439;-57
2022/09/13 08:48:53;;;;;;;7.93;7.33;;;;;;;;;;5071090;28;20779;-57
2022/09/13 08:51:29;;;;;;;8.20;7.17;;;;;;;;;;5073059;28;20870;-57
2022/09/13 08:53:56;;;;;;;8.53;7.70;;;;;;;;;;5072935;28;20443;-58
2022/09/13 08:56:24;;;;;;;7.30;6.70;;;;;;;;;;5073125;28;20486;-57
2022/09/13 08:58:57;;;;;;;8.03;7.23;;;;;;;;;;5073125;28;20447;-57
2022/09/13 09:01:29;;;;;;;9.23;7.80;;;;;;;;;;5072904;28;20582;-58
2022/09/13 09:04:02;;;;;;;7.97;7.27;;;;;;;;;;5072894;28;20477;-58
2022/09/13 09:06:30;;;;;;;7.83;7.23;;;;;;;;;;5073035;28;20958;-59
2022/09/13 09:08:59;;;;;;;7.80;7.10;;;;;;;;;;5072986;28;20447;-58
2022/09/13 09:11:29;;;;;;;7.77;7.27;;;;;;;;;;5072877;28;20889;-58
2022/09/13 09:13:58;;;;;;;7.47;6.87;;;;;;;;;;5072829;28;20538;-58
2022/09/13 09:16:31;;;;;;;7.20;6.70;;;;;;;;;;5072838;28;20448;-57
2022/09/13 09:19:00;;;;;;;7.60;7.00;;;;;;;;;;5072806;28;20448;-58
2022/09/13 09:21:27;;;;;;;7.13;6.53;;;;;;;;;;5072884;28;20475;-58
2022/09/13 09:23:55;;;;;;;8.47;7.10;;;;;;;;;;5073194;28;20862;-57
2022/09/13 09:26:25;;;;;;;10.60;8.00;;;;;;;;;;5070431;28;20486;-60
2022/09/13 09:28:54;;;;;;;6.47;5.97;;;;;;;;;;5072789;28;20535;-59
2022/09/13 09:31:26;;;;;;;7.63;7.00;;;;;;;;;;5072637;28;20448;-60
2022/09/13 09:34:07;;;;;;;7.77;7.17;;;;;;;;;;5071239;28;20885;-59
2022/09/13 09:36:39;;;;;;;6.80;6.30;;;;;;;;;;5055499;28;20448;-62
2022/09/13 09:39:06;;;;;;;7.60;7.00;;;;;;;;;;5054784;28;20803;-59
2022/09/13 09:41:35;;;;;;;7.27;6.77;;;;;;;;;;5078559;28;20470;-58
2022/09/13 09:44:05;;;;;;;6.47;6.07;;;;;;;;;;5077193;28;20535;-58
2022/09/13 09:46:34;;;;;;;7.93;7.33;;;;;;;;;;5071728;28;20507;-54
2022/09/13 09:50:07;;;;;;;6.77;6.13;;;;;;;;;;5071645;28;20482;-62
2022/09/13 09:51:55;;;;;;;6.57;6.07;;;;;;;;;;5072339;28;20800;-62
2022/09/13 09:54:22;;;;;;;7.10;6.40;;;;;;;;;;5072327;28;20443;-62
2022/09/13 09:56:53;;;;;;;7.00;6.30;;;;;;;;;;5072299;28;21038;-62
2022/09/13 09:59:26;;;;;;;6.00;5.50;;;;;;;;;;5072581;28;20451;-61
2022/09/13 10:01:56;;;;;;;7.97;7.23;;;;;;;;;;5067593;28;20928;-59
2022/09/13 10:04:25;;;;;;;10.13;6.93;;;;;;;;;;5059337;28;20456;-63
2022/09/13 10:07:08;;;;;;;6.33;5.73;;;;;;;;;;5066871;28;20452;-61
2022/09/13 10:09:38;;;;;;;6.60;6.00;;;;;;;;;;5054079;28;21018;-60
2022/09/13 10:12:05;;;;;;;6.70;6.20;;;;;;;;;;5059172;28;20509;-57
2022/09/13 10:14:36;;;;;;;7.30;6.70;;;;;;;;;;5070505;28;20459;-58
2022/09/13 10:17:05;;;;;;;7.17;6.67;;;;;;;;;;5071190;28;20540;-64
2022/09/13 10:19:35;;;;;;;7.13;6.50;;;;;;;;;;5072070;28;20953;-60
2022/09/13 10:22:04;;;;;;;6.70;6.20;;;;;;;;;;5071249;28;20986;-59
2022/09/13 10:24:31;;;;;;;6.90;6.40;;;;;;;;;;5069674;28;20540;-60
2022/09/13 10:26:58;;;;;;;7.20;6.60;;;;;;;;;;5073712;28;20451;-60
2022/09/13 10:29:27;;;;;;;7.07;6.37;;;;;;;;;;5074937;28;20451;-61
2022/09/13 10:31:56;;;;;;;6.83;6.23;;;;;;;;;;5075143;28;20451;-61
2022/09/13 10:34:25;;;;;;;7.20;6.60;;;;;;;;;;5067867;28;20486;-62
2022/09/13 10:36:55;;;;;;;6.13;5.73;;;;;;;;;;5067359;28;20483;-62
2022/09/13 10:39:23;;;;;;;6.70;6.10;;;;;;;;;;5074213;28;20825;-61
2022/09/13 10:41:51;;;;;;;6.73;6.33;;;;;;;;;;5074451;28;20483;-61
2022/09/13 10:44:26;;;;;;;9.43;6.80;;;;;;;;;;5055655;28;20448;-62
2022/09/13 10:46:53;;;;;;;7.10;6.50;;;;;;;;;;5074242;28;20454;-62
2022/09/13 10:49:36;;;;;;;7.20;6.53;;;;;;;;;;5074168;28;20570;-62
2022/09/13 10:52:23;;;;;;;7.10;6.50;;;;;;;;;;5074309;28;20451;-61
2022/09/13 10:54:49;;;;;;;6.80;6.20;;;;;;;;;;5055422;28;20448;-60
2022/09/13 10:57:29;;;;;;;8.50;6.90;;;;;;;;;;5055440;28;20539;-60
2022/09/13 10:59:56;;;;;;;6.67;6.17;;;;;;;;;;5074439;28;20449;-60
2022/09/13 11:02:35;;;;;;;7.40;6.60;;;;;;;;;;5075231;28;20493;-60
2022/09/13 11:05:10;;;;;;;7.60;6.93;;;;;;;;;;5074436;28;20819;-61
2022/09/13 11:07:41;;;;;;;6.20;5.80;;;;;;;;;;5075459;28;20542;-60
2022/09/13 11:10:13;;;;;;;6.30;5.80;;;;;;;;;;5071978;28;20462;-61
2022/09/13 11:12:43;;;;;;;6.43;6.00;;;;;;;;;;5064930;28;20447;-60
2022/09/13 11:15:21;;;;;;;5.70;5.30;;;;;;;;;;5074719;28;20447;-60
2022/09/13 11:18:00;;;;;;;6.40;5.80;;;;;;;;;;5073941;28;20530;-60
2022/09/13 11:20:31;;;;;;;6.43;5.93;;;;;;;;;;5074190;28;20877;-59
2022/09/13 11:23:09;;;;;;;5.93;5.50;;;;;;;;;;5071677;28;20982;-60
2022/09/13 11:25:40;;;;;;;6.47;5.87;;;;;;;;;;5063687;28;20469;-60
2022/09/13 11:28:12;;;;;;;6.23;5.10;;;;;;;;;;5075893;28;20443;-60
2022/09/13 11:30:41;;;;;;;6.30;5.70;;;;;;;;;;5077785;28;20454;-60
2022/09/13 11:33:18;;;;;;;6.67;6.07;;;;;;;;;;5074783;28;20455;-59
2022/09/13 11:35:51;;;;;;;6.83;6.07;;;;;;;;;;5073677;28;20452;-59
2022/09/13 11:38:28;;;;;;;6.50;6.10;;;;;;;;;;5074677;28;20534;-59
2022/09/13 11:40:59;;;;;;;7.70;7.00;;;;;;;;;;5074983;28;20534;-59
2022/09/13 11:43:40;;;;;;;7.40;6.70;;;;;;;;;;5074637;28;20490;-59
2022/09/13 11:46:10;;;;;;;7.13;6.70;;;;;;;;;;5074514;28;20516;-59
2022/09/13 11:48:45;;;;;;;8.43;7.73;;;;;;;;;;5074315;28;20567;-60
2022/09/13 11:51:16;;;;;;;8.20;7.50;;;;;;;;;;5074602;28;20446;-59
2022/09/13 11:53:49;;;;;;;8.80;8.10;;;;;;;;;;5074318;28;20455;-59
2022/09/13 11:56:20;;;;;;;9.47;8.67;;;;;;;;;;5074524;28;20452;-59
2022/09/13 11:58:49;;;;;;;7.87;7.27;;;;;;;;;;5074459;28;20538;-59
2022/09/13 12:01:20;;;;;;;9.70;8.70;;;;;;;;;;5074072;28;20431;-59
2022/09/13 12:03:49;;;;;;;10.10;9.20;;;;;;;;;;5074213;28;20562;-59
2022/09/13 12:06:19;;;;;;;10.00;9.10;;;;;;;;;;5074195;28;20454;-59
2022/09/13 12:08:48;;;;;;;9.60;8.80;;;;;;;;;;5074057;28;20882;-59
2022/09/13 12:11:18;;;;;;;9.70;8.50;;;;;;;;;;5073950;28;20534;-59
2022/09/13 12:13:48;;;;;;;10.80;9.90;;;;;;;;;;5074076;28;20550;-59
2022/09/13 12:16:18;;;;;;;9.50;8.80;;;;;;;;;;5073999;28;20448;-59
2022/09/13 12:18:46;;;;;;;10.23;9.33;;;;;;;;;;5073930;28;20538;-59
2022/09/13 12:21:15;;;;;;;9.70;8.80;;;;;;;;;;5073674;28;20449;-59
2022/09/13 12:23:44;;;;;;;9.10;8.40;;;;;;;;;;5073510;28;20990;-59
2022/09/13 12:26:16;;;;;;;9.63;8.73;;;;;;;;;;5073506;28;20455;-59
2022/09/13 12:28:45;;;;;;;9.70;8.90;;;;;;;;;;5073465;28;20454;-60
2022/09/13 12:31:18;;;;;;;9.70;8.80;;;;;;;;;;5073677;28;20554;-59
2022/09/13 12:33:45;;;;;;;9.40;8.50;;;;;;;;;;5073623;28;20946;-59
2022/09/13 12:36:30;;;;;;;9.13;7.60;;;;;;;;;;5073557;28;20449;-59
2022/09/13 12:39:08;;;;;;;8.30;7.60;;;;;;;;;;5073256;28;20538;-59
2022/09/13 12:41:47;;;;;;;8.77;8.13;;;;;;;;;;5073441;28;21007;-59
2022/09/13 12:44:20;;;;;;;8.40;7.60;;;;;;;;;;5073387;28;20452;-59
2022/09/13 12:46:58;;;;;;;8.30;7.70;;;;;;;;;;5073283;28;20452;-59
2022/09/13 12:49:36;;;;;;;8.83;8.07;;;;;;;;;;5073052;28;20439;-59
2022/09/13 12:52:10;;;;;;;7.60;7.00;;;;;;;;;;5073322;28;20819;-59
2022/09/13 12:54:54;;;;;;;8.77;8.00;;;;;;;;;;5073149;28;20458;-59
2022/09/13 12:57:30;;;;;;;7.30;6.70;;;;;;;;;;5072964;28;20535;-59
2022/09/13 13:00:03;;;;;;;7.90;7.30;;;;;;;;;;5072947;28;20484;-59
2022/09/13 13:02:32;;;;;;;7.90;7.20;;;;;;;;;;5073051;28;20471;-59
2022/09/13 13:05:00;;;;;;;7.63;7.03;;;;;;;;;;5073007;28;20505;-59
2022/09/13 13:07:29;;;;;;;8.40;7.80;;;;;;;;;;5072936;28;20543;-59
2022/09/13 13:09:57;;;;;;;8.13;7.53;;;;;;;;;;5072739;28;20455;-59
2022/09/13 13:12:30;;;;;;;8.40;7.30;;;;;;;;;;5073082;28;20640;-59
2022/09/13 13:14:58;;;;;;;7.93;7.33;;;;;;;;;;5072802;28;20451;-59
2022/09/13 13:17:39;;;;;;;7.10;6.60;;;;;;;;;;5072856;28;20808;-59
2022/09/13 13:20:25;;;;;;;7.03;6.43;;;;;;;;;;5072913;28;20454;-59
2022/09/13 13:22:52;;;;;;;8.17;7.47;;;;;;;;;;5073137;28;20483;-59
2022/09/13 13:25:30;;;;;;;7.13;6.57;;;;;;;;;;5073100;28;20562;-59
2022/09/13 13:27:59;;;;;;;8.77;7.67;;;;;;;;;;5072886;28;20857;-59
2022/09/13 13:30:55;;;;;;;8.47;7.67;;;;;;;;;;5072751;28;20448;-59
2022/09/13 13:33:24;;;;;;;8.53;7.73;;;;;;;;;;5072807;28;20443;-59
2022/09/13 13:35:51;;;;;;;8.20;7.53;;;;;;;;;;5072717;28;20448;-59
2022/09/13 13:38:33;;;;;;;7.17;6.77;;;;;;;;;;5072705;28;20806;-59
2022/09/13 13:41:08;;;;;;;7.57;6.97;;;;;;;;;;5072682;28;20529;-59
2022/09/13 13:43:36;;;;;;;8.50;7.80;;;;;;;;;;5072325;28;20478;-59
2022/09/13 13:46:21;;;;;;;8.07;7.50;;;;;;;;;;5072563;28;20481;-58
2022/09/13 13:48:48;;;;;;;7.80;7.20;;;;;;;;;;5072348;28;20478;-59
2022/09/13 13:51:17;;;;;;;24.40;17.87;;;;;;;;;;5072525;28;20500;-59
2022/09/13 13:53:46;;;;;;;10.03;8.97;;;;;;;;;;5072634;28;20447;-59
2022/09/13 13:56:19;;;;;;;9.07;8.27;;;;;;;;;;5072555;28;20902;-59
2022/09/13 13:58:50;;;;;;;8.77;7.80;;;;;;;;;;5072716;28;20554;-59
2022/09/13 14:01:19;;;;;;;8.50;7.80;;;;;;;;;;5076636;28;20513;-59
2022/09/13 14:04:05;;;;;;;8.37;7.53;;;;;;;;;;5076237;28;20578;-59
2022/09/13 14:06:35;;;;;;;10.03;8.50;;;;;;;;;;5076494;28;20564;-59
2022/09/13 14:09:05;;;;;;;9.83;8.93;;;;;;;;;;5076337;28;20450;-59
2022/09/13 14:11:40;;;;;;;8.27;7.57;;;;;;;;;;5076277;28;20554;-59
2022/09/13 14:14:15;;;;;;;9.50;8.47;;;;;;;;;;5076272;28;20446;-59
2022/09/13 14:16:48;;;;;;;8.40;7.70;;;;;;;;;;5076025;28;20784;-59
2022/09/13 14:19:22;;;;;;;8.30;7.60;;;;;;;;;;5076212;28;20465;-59
2022/09/13 14:22:05;;;;;;;8.10;7.40;;;;;;;;;;5075859;28;20447;-59
2022/09/13 14:24:36;;;;;;;10.30;9.30;;;;;;;;;;5076106;28;20540;-59
2022/09/13 14:27:03;;;;;;;11.40;10.50;;;;;;;;;;5075891;28;20548;-59
2022/09/13 14:29:32;;;;;;;13.33;10.90;;;;;;;;;;5076021;28;20878;-60
2022/09/13 14:32:03;;;;;;;13.23;12.13;;;;;;;;;;5075865;28;20457;-59
2022/09/13 14:34:31;;;;;;;13.00;11.83;;;;;;;;;;5075957;28;20451;-59
2022/09/13 14:36:59;;;;;;;12.73;11.63;;;;;;;;;;5075780;28;20815;-59
2022/09/13 14:39:27;;;;;;;10.53;9.70;;;;;;;;;;5075601;28;20447;-59
2022/09/13 14:42:00;;;;;;;12.03;10.93;;;;;;;;;;5076259;28;20473;-59
2022/09/13 14:44:28;;;;;;;10.10;9.30;;;;;;;;;;5075668;28;20483;-59
2022/09/13 14:46:59;;;;;;;10.23;9.23;;;;;;;;;;5075632;28;20459;-59
2022/09/13 14:49:28;;;;;;;11.53;10.43;;;;;;;;;;5075606;28;20875;-59
2022/09/13 14:51:56;;;;;;;11.20;10.20;;;;;;;;;;5075606;28;20453;-60
2022/09/13 14:54:28;;;;;;;9.57;8.87;;;;;;;;;;5075354;28;21000;-59
2022/09/13 14:56:56;;;;;;;9.40;8.70;;;;;;;;;;5075333;28;20966;-59
2022/09/13 14:59:26;;;;;;;9.20;8.47;;;;;;;;;;5075464;28;20454;-59